createdAt,value
2018-08-16T00:00:02.964Z,9.60
2018-08-16T00:02:31.438Z,9.60
2018-08-16T00:04:59.760Z,9.33
2018-08-16T00:07:28.069Z,9.13
2018-08-16T00:09:56.871Z,9.50
2018-08-16T00:12:25.224Z,8.90
2018-08-16T00:14:53.550Z,8.43
2018-08-16T00:17:21.880Z,10.33
2018-08-16T00:19:50.146Z,9.63
2018-08-16T00:22:18.480Z,9.33
2018-08-16T00:24:46.774Z,8.80
2018-08-16T00:27:15.094Z,9.13
2018-08-16T00:29:43.502Z,9.77
2018-08-16T00:33:15.314Z,9.53
2018-08-16T00:35:43.602Z,8.53
2018-08-16T00:38:11.997Z,8.67
2018-08-16T00:40:40.335Z,8.47
2018-08-16T00:43:08.668Z,9.30
2018-08-16T00:45:37.014Z,8.80
2018-08-16T00:48:05.419Z,9.17
2018-08-16T00:50:34.022Z,9.17
2018-08-16T00:53:02.355Z,8.63
2018-08-16T00:55:30.691Z,8.43
2018-08-16T00:57:59.046Z,9.37
2018-08-16T01:00:27.358Z,9.57
2018-08-16T01:02:55.653Z,9.50
2018-08-16T01:05:24.027Z,9.60
2018-08-16T01:07:52.310Z,8.60
2018-08-16T01:10:20.562Z,9.53
2018-08-16T01:12:48.875Z,10.33
2018-08-16T01:15:17.521Z,9.27
2018-08-16T01:17:45.861Z,10.13
2018-08-16T01:20:14.379Z,10.60
2018-08-16T01:22:42.647Z,9.80
2018-08-16T01:25:12.051Z,10.03
2018-08-16T01:27:40.364Z,9.30
2018-08-16T01:30:09.744Z,9.43
2018-08-16T01:32:38.014Z,9.60
2018-08-16T01:35:06.802Z,10.80
2018-08-16T01:37:35.159Z,10.03
2018-08-16T01:40:03.607Z,9.70
2018-08-16T01:42:31.891Z,9.13
2018-08-16T01:45:00.217Z,9.43
2018-08-16T01:47:28.702Z,9.67
2018-08-16T01:49:56.982Z,9.77
2018-08-16T01:52:25.384Z,9.73
2018-08-16T01:54:53.669Z,9.43
2018-08-16T01:57:22.002Z,10.07
2018-08-16T01:59:50.370Z,10.13
2018-08-16T02:02:18.745Z,10.40
2018-08-16T02:04:47.029Z,9.60
2018-08-16T02:07:15.366Z,10.23
2018-08-16T02:09:43.754Z,8.83
2018-08-16T02:12:12.135Z,10.27
2018-08-16T02:14:40.462Z,9.77
2018-08-16T02:17:08.821Z,9.83
2018-08-16T02:19:37.111Z,10.10
2018-08-16T02:22:05.503Z,10.67
2018-08-16T02:24:33.776Z,10.77
2018-08-16T02:27:02.079Z,10.77
2018-08-16T02:29:30.394Z,10.03
2018-08-16T02:31:58.710Z,10.30
2018-08-16T02:34:27.281Z,9.80
2018-08-16T02:36:55.794Z,10.33
2018-08-16T02:39:24.159Z,9.87
2018-08-16T02:41:52.527Z,11.03
2018-08-16T02:44:20.875Z,11.07
2018-08-16T02:46:49.146Z,10.53
2018-08-16T02:49:17.488Z,9.57
2018-08-16T02:51:45.795Z,10.47
2018-08-16T02:54:14.136Z,10.63
2018-08-16T02:56:42.424Z,10.27
2018-08-16T02:59:10.744Z,9.63
2018-08-16T03:01:39.039Z,9.33
2018-08-16T03:04:07.456Z,9.17
2018-08-16T03:06:35.742Z,9.13
2018-08-16T03:09:05.631Z,9.60
2018-08-16T03:11:33.926Z,9.30
2018-08-16T03:14:02.257Z,10.70
2018-08-16T03:16:30.611Z,9.53
2018-08-16T03:18:58.938Z,9.80
2018-08-16T03:21:27.294Z,14.57
2018-08-16T03:23:55.888Z,10.97
2018-08-16T03:26:24.508Z,10.13
2018-08-16T03:28:59.472Z,10.23
2018-08-16T03:31:27.836Z,10.43
2018-08-16T03:33:56.115Z,10.43
2018-08-16T03:36:24.484Z,9.90
2018-08-16T03:38:52.759Z,10.70
2018-08-16T03:41:21.114Z,10.67
2018-08-16T03:43:49.419Z,10.23
2018-08-16T03:46:17.898Z,11.27
2018-08-16T03:48:46.169Z,10.40
2018-08-16T03:51:14.473Z,11.13
2018-08-16T03:53:42.773Z,10.67
2018-08-16T03:56:11.113Z,10.33
2018-08-16T03:58:39.408Z,10.60
2018-08-16T04:01:07.995Z,11.43
2018-08-16T04:03:36.314Z,11.10
2018-08-16T04:06:04.682Z,11.30
2018-08-16T04:08:33.134Z,11.67
2018-08-16T04:11:01.450Z,10.17
2018-08-16T04:13:29.778Z,11.00
2018-08-16T04:15:58.105Z,10.47
2018-08-16T04:18:26.520Z,10.37
2018-08-16T04:20:54.851Z,10.90
2018-08-16T04:23:23.347Z,10.07
2018-08-16T04:25:51.723Z,10.60
2018-08-16T04:28:20.022Z,11.50
2018-08-16T04:30:48.290Z,11.73
2018-08-16T04:33:16.585Z,11.07
2018-08-16T04:35:44.882Z,10.77
2018-08-16T04:38:13.239Z,10.23
2018-08-16T04:40:41.562Z,11.43
2018-08-16T04:43:09.894Z,11.07
2018-08-16T04:45:38.236Z,11.23
2018-08-16T04:48:07.140Z,11.63
2018-08-16T04:50:35.645Z,11.13
2018-08-16T04:53:04.114Z,10.83
2018-08-16T04:55:32.448Z,10.73
2018-08-16T04:58:00.824Z,11.50
2018-08-16T05:00:29.223Z,11.10
2018-08-16T05:02:57.574Z,11.00
2018-08-16T05:05:26.295Z,9.97
2018-08-16T05:07:54.613Z,10.97
2018-08-16T05:10:22.994Z,10.70
2018-08-16T05:12:51.571Z,11.93
2018-08-16T05:15:19.968Z,11.40
2018-08-16T05:17:48.410Z,11.43
2018-08-16T05:20:16.774Z,10.73
2018-08-16T05:22:45.253Z,11.27
2018-08-16T05:25:13.536Z,11.43
2018-08-16T05:27:41.886Z,11.50
2018-08-16T05:30:12.207Z,11.27
2018-08-16T05:32:40.877Z,11.30
2018-08-16T05:35:09.499Z,12.27
2018-08-16T05:37:38.652Z,11.87
2018-08-16T05:40:08.615Z,12.23
2018-08-16T05:42:37.042Z,12.90
2018-08-16T05:45:05.632Z,12.03
2018-08-16T05:47:33.947Z,12.30
2018-08-16T05:50:02.411Z,11.37
2018-08-16T05:52:30.726Z,12.13
2018-08-16T05:54:59.043Z,12.23
2018-08-16T05:57:27.385Z,10.73
2018-08-16T05:59:55.807Z,12.30
2018-08-16T06:02:24.179Z,11.70
2018-08-16T06:04:52.517Z,11.93
2018-08-16T06:07:21.176Z,11.97
2018-08-16T06:09:49.634Z,12.37
2018-08-16T06:12:17.995Z,12.47
2018-08-16T06:14:47.246Z,12.43
2018-08-16T06:17:15.942Z,13.33
2018-08-16T06:19:44.412Z,14.87
2018-08-16T06:22:12.782Z,15.53
2018-08-16T06:24:41.848Z,15.47
2018-08-16T06:27:10.253Z,16.20
2018-08-16T06:29:38.576Z,14.50
2018-08-16T06:32:07.208Z,16.03
2018-08-16T06:34:35.612Z,15.50
2018-08-16T06:37:04.147Z,14.83
2018-08-16T06:39:32.527Z,14.80
2018-08-16T06:42:00.817Z,14.10
2018-08-16T06:44:29.141Z,13.97
2018-08-16T06:46:57.946Z,13.83
2018-08-16T06:49:26.345Z,12.93
2018-08-16T06:51:54.878Z,13.63
2018-08-16T06:54:23.213Z,13.47
2018-08-16T06:56:51.500Z,13.17
2018-08-16T06:59:19.851Z,12.73
2018-08-16T07:01:48.246Z,13.07
2018-08-16T07:04:16.666Z,12.67
2018-08-16T07:06:45.113Z,12.67
2018-08-16T07:09:13.409Z,11.83
2018-08-16T07:11:41.722Z,12.50
2018-08-16T07:14:10.015Z,11.43
2018-08-16T07:16:38.288Z,11.80
2018-08-16T07:19:06.667Z,10.70
2018-08-16T07:21:34.951Z,10.53
2018-08-16T07:24:03.295Z,10.30
2018-08-16T07:26:31.575Z,10.32
2018-08-16T07:28:59.955Z,10.73
2018-08-16T07:31:28.270Z,10.70
2018-08-16T07:34:02.335Z,10.28
2018-08-16T07:36:30.643Z,10.38
2018-08-16T07:38:58.998Z,9.95
2018-08-16T07:41:27.299Z,10.20
2018-08-16T07:43:55.825Z,9.40
2018-08-16T07:46:24.165Z,9.03
2018-08-16T07:48:52.432Z,8.35
2018-08-16T07:51:21.011Z,8.30
2018-08-16T07:53:49.083Z,8.65
2018-08-16T07:56:17.386Z,8.40
2018-08-16T07:58:45.689Z,8.75
2018-08-16T08:01:16.970Z,8.25
2018-08-16T08:03:45.298Z,9.08
2018-08-16T08:06:13.683Z,8.55
2018-08-16T08:08:41.966Z,9.38
2018-08-16T08:11:10.266Z,8.90
2018-08-16T08:13:38.595Z,9.25
2018-08-16T08:16:06.987Z,8.33
2018-08-16T08:18:35.295Z,8.08
2018-08-16T08:21:03.609Z,7.90
2018-08-16T08:23:31.870Z,7.87
2018-08-16T08:26:00.190Z,7.90
2018-08-16T08:28:28.507Z,7.17
2018-08-16T08:30:56.846Z,7.03
2018-08-16T08:33:25.222Z,6.75
2018-08-16T08:36:05.123Z,6.62
2018-08-16T08:38:33.637Z,6.47
2018-08-16T08:41:02.227Z,6.22
2018-08-16T08:43:42.059Z,5.97
2018-08-16T08:46:10.517Z,5.62
2018-08-16T08:48:38.774Z,6.10
2018-08-16T08:51:07.096Z,5.55
2018-08-16T08:54:17.988Z,5.60
2018-08-16T08:56:57.779Z,5.30
2018-08-16T08:59:26.330Z,4.78
2018-08-16T09:01:54.575Z,5.28
2018-08-16T09:04:22.911Z,5.08
2018-08-16T09:06:51.260Z,5.65
2018-08-16T09:09:20.344Z,5.28
2018-08-16T09:11:59.905Z,5.50
2018-08-16T09:14:39.538Z,6.00
2018-08-16T09:17:08.233Z,4.83
2018-08-16T09:19:36.723Z,6.17
2018-08-16T09:22:05.117Z,5.30
2018-08-16T09:24:33.399Z,5.03
2018-08-16T09:27:01.707Z,4.83
2018-08-16T09:30:38.845Z,4.85
2018-08-16T09:33:18.591Z,4.97
2018-08-16T09:35:47.103Z,5.12
2018-08-16T09:38:15.397Z,5.78
2018-08-16T09:40:43.766Z,5.20
2018-08-16T09:43:12.043Z,5.58
2018-08-16T09:46:52.107Z,5.12
2018-08-16T09:49:20.390Z,5.37
2018-08-16T09:51:49.085Z,5.87
2018-08-16T09:54:17.295Z,5.00
2018-08-16T09:56:46.399Z,5.20
2018-08-16T09:59:14.714Z,4.70
2018-08-16T10:01:43.027Z,5.05
2018-08-16T10:04:11.406Z,4.70
2018-08-16T10:06:40.719Z,4.62
2018-08-16T10:09:13.067Z,5.00
2018-08-16T10:11:41.358Z,5.25
2018-08-16T10:14:09.670Z,5.35
2018-08-16T10:16:38.252Z,5.60
2018-08-16T10:19:06.814Z,5.08
2018-08-16T10:21:35.206Z,4.90
2018-08-16T10:24:03.959Z,5.87
2018-08-16T10:26:37.876Z,5.22
2018-08-16T10:29:06.942Z,5.50
2018-08-16T10:31:35.249Z,5.00
2018-08-16T10:34:03.571Z,5.10
2018-08-16T10:36:32.131Z,4.95
2018-08-16T10:39:00.443Z,5.10
2018-08-16T10:41:29.175Z,5.75
2018-08-16T10:43:57.556Z,5.20
2018-08-16T10:46:25.925Z,5.55
2018-08-16T10:48:54.268Z,5.20
2018-08-16T10:51:22.582Z,4.97
2018-08-16T10:53:50.932Z,5.15
2018-08-16T10:56:19.219Z,5.15
2018-08-16T10:58:47.521Z,5.25
2018-08-16T11:01:15.819Z,5.25
2018-08-16T11:03:44.159Z,5.97
2018-08-16T11:06:12.489Z,5.47
2018-08-16T11:08:40.899Z,5.50
2018-08-16T11:11:09.277Z,5.37
2018-08-16T11:13:37.928Z,5.60
2018-08-16T11:16:06.225Z,5.58
2018-08-16T11:18:34.551Z,6.60
2018-08-16T11:21:02.868Z,11.55
2018-08-16T11:23:31.153Z,6.10
2018-08-16T11:25:59.447Z,6.95
2018-08-16T11:28:27.742Z,12.20
2018-08-16T11:30:56.038Z,12.33
2018-08-16T11:33:25.385Z,7.37
2018-08-16T11:35:53.687Z,6.40
2018-08-16T11:38:22.023Z,6.12
2018-08-16T11:40:50.375Z,6.50
2018-08-16T11:43:18.722Z,5.05
2018-08-16T11:45:47.032Z,5.42
2018-08-16T11:48:15.332Z,5.03
2018-08-16T11:50:43.675Z,5.80
2018-08-16T11:53:12.030Z,5.85
2018-08-16T11:55:40.339Z,5.60
2018-08-16T11:58:08.663Z,5.62
2018-08-16T12:00:37.027Z,5.65
2018-08-16T12:03:05.934Z,5.67
2018-08-16T12:05:34.208Z,5.55
2018-08-16T12:08:02.537Z,5.78
2018-08-16T12:10:30.810Z,5.28
2018-08-16T12:12:59.191Z,5.00
2018-08-16T12:15:27.496Z,5.10
2018-08-16T12:17:55.819Z,5.83
2018-08-16T12:20:24.098Z,5.67
2018-08-16T12:22:52.540Z,5.75
2018-08-16T12:25:20.903Z,5.33
2018-08-16T12:27:49.267Z,5.55
2018-08-16T12:30:17.596Z,5.72
2018-08-16T12:32:46.015Z,5.50
2018-08-16T12:35:14.352Z,5.40
2018-08-16T12:37:42.860Z,5.40
2018-08-16T12:40:11.249Z,4.83
2018-08-16T12:42:39.590Z,4.92
2018-08-16T12:45:07.998Z,5.30
2018-08-16T12:47:36.320Z,4.53
2018-08-16T12:50:05.711Z,5.00
2018-08-16T12:52:34.328Z,4.65
2018-08-16T12:55:02.630Z,4.90
2018-08-16T12:57:31.214Z,4.80
2018-08-16T12:59:59.566Z,4.92
2018-08-16T13:02:27.887Z,4.97
2018-08-16T13:04:56.231Z,4.80
2018-08-16T13:07:24.554Z,4.92
2018-08-16T13:09:53.006Z,4.75
2018-08-16T13:12:21.887Z,4.47
2018-08-16T13:14:50.267Z,4.62
2018-08-16T13:17:19.042Z,4.92
2018-08-16T13:19:47.424Z,4.55
2018-08-16T13:22:22.637Z,4.55
2018-08-16T13:24:51.103Z,4.22
2018-08-16T13:27:19.409Z,4.65
2018-08-16T13:29:48.020Z,4.70
2018-08-16T13:32:16.459Z,4.58
2018-08-16T13:34:44.855Z,4.58
2018-08-16T13:37:13.443Z,4.22
2018-08-16T13:39:41.750Z,4.50
2018-08-16T13:42:10.327Z,3.90
2018-08-16T13:44:38.754Z,3.72
2018-08-16T13:47:07.264Z,4.40
2018-08-16T13:49:35.588Z,4.35
2018-08-16T13:52:04.413Z,4.45
2018-08-16T13:54:32.772Z,3.95
2018-08-16T13:57:01.074Z,4.17
2018-08-16T13:59:29.425Z,4.30
2018-08-16T14:01:57.785Z,4.42
2018-08-16T14:04:26.109Z,4.58
2018-08-16T14:06:54.369Z,4.30
2018-08-16T14:09:22.716Z,4.22
2018-08-16T14:11:51.199Z,3.83
2018-08-16T14:14:19.582Z,3.95
2018-08-16T14:16:47.919Z,3.50
2018-08-16T14:19:16.416Z,3.85
2018-08-16T14:21:44.877Z,4.15
2018-08-16T14:24:13.237Z,3.90
2018-08-16T14:26:41.585Z,4.12
2018-08-16T14:29:09.901Z,3.77
2018-08-16T14:31:38.203Z,3.80
2018-08-16T14:34:06.527Z,4.20
2018-08-16T14:36:34.850Z,3.70
2018-08-16T14:39:03.213Z,4.03
2018-08-16T14:41:31.721Z,3.83
2018-08-16T14:44:00.336Z,4.10
2018-08-16T14:46:28.642Z,4.20
2018-08-16T14:48:56.942Z,3.67
2018-08-16T14:51:25.378Z,4.42
2018-08-16T14:53:53.637Z,4.55
2018-08-16T14:56:22.064Z,4.37
2018-08-16T14:58:50.407Z,4.22
2018-08-16T15:01:18.715Z,4.50
2018-08-16T15:03:47.148Z,3.98
2018-08-16T15:06:15.466Z,3.70
2018-08-16T15:08:43.801Z,4.50
2018-08-16T15:11:12.133Z,4.08
2018-08-16T15:13:40.459Z,3.67
2018-08-16T15:16:08.778Z,3.95
2018-08-16T15:18:37.085Z,4.00
2018-08-16T15:21:05.446Z,4.20
2018-08-16T15:23:33.754Z,4.37
2018-08-16T15:26:02.126Z,4.20
2018-08-16T15:28:30.495Z,4.10
2018-08-16T15:30:58.935Z,4.55
2018-08-16T15:33:27.266Z,4.37
2018-08-16T15:35:55.758Z,4.53
2018-08-16T15:38:24.106Z,4.30
2018-08-16T15:40:52.656Z,4.58
2018-08-16T15:43:20.890Z,4.37
2018-08-16T15:45:49.216Z,4.50
2018-08-16T15:48:17.551Z,4.42
2018-08-16T15:50:46.366Z,4.50
2018-08-16T15:53:14.881Z,4.78
2018-08-16T15:55:44.218Z,4.35
2018-08-16T15:58:12.532Z,4.37
2018-08-16T16:00:40.848Z,4.80
2018-08-16T16:03:09.401Z,4.40
2018-08-16T16:05:37.829Z,4.30
2018-08-16T16:08:06.162Z,4.85
2018-08-16T16:10:34.570Z,4.78
2018-08-16T16:13:02.926Z,4.80
2018-08-16T16:15:31.260Z,4.95
2018-08-16T16:17:59.769Z,4.50
2018-08-16T16:20:28.102Z,5.17
2018-08-16T16:22:56.576Z,4.90
2018-08-16T16:25:24.873Z,4.35
2018-08-16T16:27:53.344Z,4.58
2018-08-16T16:30:21.625Z,4.40
2018-08-16T16:32:49.939Z,4.55
2018-08-16T16:35:18.209Z,4.50
2018-08-16T16:37:46.584Z,4.60
2018-08-16T16:40:14.890Z,4.70
2018-08-16T16:42:43.234Z,4.90
2018-08-16T16:45:11.518Z,4.67
2018-08-16T16:47:39.851Z,5.00
2018-08-16T16:50:09.099Z,4.95
2018-08-16T16:52:44.734Z,5.25
2018-08-16T16:55:13.069Z,4.90
2018-08-16T16:57:41.354Z,4.87
2018-08-16T17:00:09.844Z,4.62
2018-08-16T17:02:38.287Z,4.50
2018-08-16T17:05:06.705Z,4.25
2018-08-16T17:07:35.062Z,4.60
2018-08-16T17:10:03.376Z,4.60
2018-08-16T17:12:31.848Z,4.40
2018-08-16T17:15:00.176Z,4.40
2018-08-16T17:17:28.566Z,4.20
2018-08-16T17:19:56.859Z,4.30
2018-08-16T17:22:25.364Z,4.35
2018-08-16T17:24:53.845Z,4.33
2018-08-16T17:27:22.299Z,4.42
2018-08-16T17:29:50.584Z,4.08
2018-08-16T17:32:19.185Z,3.90
2018-08-16T17:34:47.651Z,4.25
2018-08-16T17:37:15.953Z,4.37
2018-08-16T17:39:44.269Z,4.53
2018-08-16T17:42:12.862Z,4.53
2018-08-16T17:44:41.163Z,4.08
2018-08-16T17:47:09.748Z,4.30
2018-08-16T17:49:38.095Z,4.25
2018-08-16T17:52:06.570Z,4.62
2018-08-16T17:54:35.103Z,3.90
2018-08-16T17:57:03.447Z,4.37
2018-08-16T17:59:31.979Z,4.17
2018-08-16T18:02:00.555Z,4.03
2018-08-16T18:04:29.042Z,4.37
2018-08-16T18:06:57.799Z,4.35
2018-08-16T18:09:26.110Z,4.00
2018-08-16T18:11:54.553Z,4.42
2018-08-16T18:14:22.842Z,4.55
2018-08-16T18:16:51.159Z,4.40
2018-08-16T18:19:19.575Z,4.42
2018-08-16T18:21:47.992Z,4.05
2018-08-16T18:24:16.313Z,4.00
2018-08-16T18:26:44.612Z,4.00
2018-08-16T18:29:13.116Z,4.08
2018-08-16T18:31:41.629Z,3.67
2018-08-16T18:34:10.102Z,4.58
2018-08-16T18:36:38.626Z,4.10
2018-08-16T18:39:08.612Z,4.28
2018-08-16T18:41:37.289Z,4.03
2018-08-16T18:44:05.572Z,4.20
2018-08-16T18:46:33.912Z,4.50
2018-08-16T18:49:02.569Z,4.17
2018-08-16T18:51:30.863Z,4.00
2018-08-16T18:53:59.354Z,4.33
2018-08-16T18:56:27.671Z,4.20
2018-08-16T18:58:56.078Z,4.00
2018-08-16T19:01:25.705Z,4.67
2018-08-16T19:03:54.845Z,5.03
2018-08-16T19:06:24.490Z,4.87
2018-08-16T19:08:52.837Z,4.72
2018-08-16T19:11:21.292Z,4.75
2018-08-16T19:13:49.771Z,4.90
2018-08-16T19:16:18.192Z,4.58
2018-08-16T19:18:46.601Z,4.30
2018-08-16T19:21:14.860Z,4.65
2018-08-16T19:23:43.243Z,4.40
2018-08-16T19:26:11.839Z,4.22
2018-08-16T19:28:40.155Z,4.83
2018-08-16T19:31:08.428Z,4.10
2018-08-16T19:33:36.734Z,4.03
2018-08-16T19:36:05.784Z,4.15
2018-08-16T19:38:34.186Z,4.00
2018-08-16T19:41:02.597Z,4.35
2018-08-16T19:43:31.065Z,4.83
2018-08-16T19:45:59.655Z,4.45
2018-08-16T19:48:28.063Z,4.50
2018-08-16T19:50:56.366Z,4.37
2018-08-16T19:53:24.731Z,4.45
2018-08-16T19:55:53.128Z,3.90
2018-08-16T19:58:21.438Z,4.00
2018-08-16T20:00:49.800Z,4.03
2018-08-16T20:03:18.137Z,4.55
2018-08-16T20:05:46.542Z,4.20
2018-08-16T20:08:14.895Z,4.58
2018-08-16T20:10:43.192Z,4.83
2018-08-16T20:13:11.606Z,4.58
2018-08-16T20:15:40.181Z,4.60
2018-08-16T20:18:08.658Z,4.85
2018-08-16T20:20:36.891Z,4.92
2018-08-16T20:23:05.344Z,4.55
2018-08-16T20:25:33.770Z,4.62
2018-08-16T20:28:02.184Z,4.90
2018-08-16T20:30:33.127Z,4.55
2018-08-16T20:33:01.522Z,4.55
2018-08-16T20:35:29.863Z,4.37
2018-08-16T20:37:58.310Z,4.70
2018-08-16T20:40:26.705Z,4.45
2018-08-16T20:42:55.255Z,4.90
2018-08-16T20:45:23.516Z,4.33
2018-08-16T20:47:51.829Z,4.45
2018-08-16T20:50:20.143Z,4.40
2018-08-16T20:52:48.432Z,4.90
2018-08-16T20:55:16.784Z,4.70
2018-08-16T20:57:45.238Z,4.42
2018-08-16T21:00:13.594Z,4.80
2018-08-16T21:02:41.904Z,5.22
2018-08-16T21:05:10.483Z,4.58
2018-08-16T21:07:38.740Z,4.80
2018-08-16T21:10:08.188Z,4.42
2018-08-16T21:12:36.455Z,4.70
2018-08-16T21:15:05.944Z,4.78
2018-08-16T21:17:34.122Z,4.67
2018-08-16T21:20:02.515Z,5.20
2018-08-16T21:22:30.804Z,5.10
2018-08-16T21:24:59.092Z,5.17
2018-08-16T21:27:27.498Z,4.97
2018-08-16T21:29:55.787Z,5.10
2018-08-16T21:32:24.086Z,5.15
2018-08-16T21:34:52.355Z,5.30
2018-08-16T21:37:20.659Z,4.97
2018-08-16T21:39:48.954Z,5.10
2018-08-16T21:42:17.294Z,5.20
2018-08-16T21:44:45.623Z,4.80
2018-08-16T21:47:14.063Z,5.00
2018-08-16T21:49:42.346Z,5.30
2018-08-16T21:52:10.726Z,5.05
2018-08-16T21:54:39.026Z,5.20
2018-08-16T21:57:07.471Z,5.37
2018-08-16T21:59:35.846Z,5.03
2018-08-16T22:02:04.671Z,5.10
2018-08-16T22:04:33.005Z,5.17
2018-08-16T22:07:09.964Z,5.12
2018-08-16T22:09:38.387Z,4.87
2018-08-16T22:12:06.679Z,5.17
2018-08-16T22:14:35.035Z,5.40
2018-08-16T22:17:03.347Z,5.50
2018-08-16T22:19:31.628Z,5.80
2018-08-16T22:21:59.950Z,5.55
2018-08-16T22:24:28.214Z,5.62
2018-08-16T22:26:56.555Z,5.70
2018-08-16T22:29:24.846Z,5.95
2018-08-16T22:31:59.074Z,5.35
2018-08-16T22:34:27.358Z,5.78
2018-08-16T22:36:55.656Z,6.10
2018-08-16T22:39:24.090Z,5.47
2018-08-16T22:41:52.508Z,6.05
2018-08-16T22:44:20.843Z,6.40
2018-08-16T22:46:49.161Z,6.10
2018-08-16T22:49:17.435Z,5.83
2018-08-16T22:51:45.745Z,6.22
2018-08-16T22:54:14.271Z,6.10
2018-08-16T22:56:42.603Z,6.20
2018-08-16T22:59:10.898Z,6.17
2018-08-16T23:01:39.280Z,6.28
2018-08-16T23:04:07.602Z,5.45
2018-08-16T23:06:35.943Z,7.10
2018-08-16T23:09:04.800Z,7.33
2018-08-16T23:11:33.247Z,7.40
2018-08-16T23:14:01.565Z,7.97
2018-08-16T23:16:29.872Z,8.13
2018-08-16T23:18:58.249Z,8.80
2018-08-16T23:21:26.566Z,8.78
2018-08-16T23:23:54.891Z,9.80
2018-08-16T23:26:23.172Z,9.90
2018-08-16T23:28:51.620Z,10.53
2018-08-16T23:31:20.043Z,11.08
2018-08-16T23:33:48.584Z,10.80
2018-08-16T23:36:16.907Z,11.05
2018-08-16T23:38:45.225Z,11.45
2018-08-16T23:41:13.619Z,10.95
2018-08-16T23:43:42.619Z,12.28
2018-08-16T23:46:10.987Z,12.98
2018-08-16T23:48:39.294Z,12.40
2018-08-16T23:51:07.579Z,13.08
2018-08-16T23:53:35.903Z,12.70
2018-08-16T23:56:04.238Z,13.55
2018-08-16T23:58:32.570Z,12.85
